Terminal Aerodrome Forecast
Issued by NWS

Current Version | Previous Version | Text Only | Print | Product List | Glossary Off
Versions: 1 2 3 4 5 6 7 8 9 10 11 12 13 14 15 16 17 18 19 20 21 22 23 24 25 26 27 28

000
FTUS41 KPBZ 132357 CCA
TAFHLG
TAF COR
KHLG 132357Z 1400/1424 14008KT 6SM -SN OVC040
     FM140100 17007KT 2SM -SN OVC025
     FM140300 21008KT 2SM -SN OVC015
     FM140700 25008KT 3SM -SN OVC020
     FM141000 29008KT P6SM VCSH OVC015
     FM141400 32008KT P6SM BKN025
     FM141800 32008KT P6SM BKN035=

USA.gov is the U.S. government's official web portal to all federal, state and local government web resources and services.